createdAt,value
2019-05-26T00:00:52.275Z,101128.92
2019-05-26T00:01:59.199Z,101123.38
2019-05-26T00:03:06.849Z,101127.61
2019-05-26T00:04:13.671Z,101118.12
2019-05-26T00:05:21.316Z,101112.95
2019-05-26T00:06:28.185Z,101117.94
2019-05-26T00:07:35.895Z,101117.09
2019-05-26T00:08:42.731Z,101114.44
2019-05-26T00:09:50.742Z,101117.04
2019-05-26T00:10:57.600Z,101110.66
2019-05-26T00:12:05.244Z,101111.45
2019-05-26T00:13:12.369Z,101107.64
2019-05-26T00:14:19.979Z,101101.73
2019-05-26T00:15:26.812Z,101100.89
2019-05-26T00:16:34.882Z,101097.05
2019-05-26T00:17:41.710Z,101097.61
2019-05-26T00:18:49.321Z,101096.96
2019-05-26T00:19:56.145Z,101097.05
2019-05-26T00:21:03.885Z,101095.63
2019-05-26T00:22:11.114Z,101099.73
2019-05-26T00:23:18.712Z,101099.14
2019-05-26T00:24:25.556Z,101096.52
2019-05-26T00:25:35.570Z,101098.73
2019-05-26T00:26:42.400Z,101103.09
2019-05-26T00:27:50.049Z,101100.50
2019-05-26T00:28:56.914Z,101099.19
2019-05-26T00:30:04.544Z,101098.71
2019-05-26T00:31:11.775Z,101096.98
2019-05-26T00:32:19.399Z,101093.53
2019-05-26T00:33:26.238Z,101092.28
2019-05-26T00:34:33.888Z,101095.29
2019-05-26T00:35:42.863Z,101093.95
2019-05-26T00:36:50.467Z,101092.96
2019-05-26T00:37:57.311Z,101096.37
2019-05-26T00:39:06.027Z,101092.58
2019-05-26T00:40:13.255Z,101094.03
2019-05-26T00:41:20.891Z,101095.77
2019-05-26T00:42:27.735Z,101091.83
2019-05-26T00:43:35.372Z,101086.72
2019-05-26T00:44:42.545Z,101086.72
2019-05-26T00:45:50.305Z,101089.71
2019-05-26T00:46:57.484Z,101079.47
2019-05-26T00:48:05.578Z,101082.99
2019-05-26T00:49:12.390Z,101077.53
2019-05-26T00:50:20.297Z,101078.34
2019-05-26T00:51:27.127Z,101069.89
2019-05-26T00:52:34.771Z,101066.94
2019-05-26T00:53:41.667Z,101064.88
2019-05-26T00:54:49.619Z,101065.80
2019-05-26T00:55:56.425Z,101064.44
2019-05-26T00:57:04.343Z,101063.98
2019-05-26T00:58:11.159Z,101069.00
2019-05-26T00:59:18.971Z,101062.17
2019-05-26T01:00:41.722Z,101059.09
2019-05-26T01:01:49.837Z,101061.75
2019-05-26T01:02:56.705Z,101053.75
2019-05-26T01:04:04.403Z,101058.64
2019-05-26T01:05:12.329Z,101059.28
2019-05-26T01:06:20.031Z,101062.83
2019-05-26T01:07:26.935Z,101059.31
2019-05-26T01:08:34.946Z,101056.61
2019-05-26T01:09:42.157Z,101057.47
2019-05-26T01:10:50.457Z,101059.61
2019-05-26T01:11:57.292Z,101055.80
2019-05-26T01:13:05.186Z,101053.68
2019-05-26T01:14:12.357Z,101058.30
2019-05-26T01:15:19.984Z,101057.45
2019-05-26T01:16:26.901Z,101053.93
2019-05-26T01:17:34.506Z,101062.91
2019-05-26T01:18:41.677Z,101064.58
2019-05-26T01:19:49.453Z,101061.92
2019-05-26T01:20:56.801Z,101058.89
2019-05-26T01:22:04.799Z,101055.45
2019-05-26T01:23:11.976Z,101049.46
2019-05-26T01:24:20.282Z,101048.59
2019-05-26T01:25:27.099Z,101041.17
2019-05-26T01:26:35.257Z,101037.66
2019-05-26T01:27:42.092Z,101040.16
2019-05-26T01:28:50.438Z,101040.52
2019-05-26T01:29:57.276Z,101036.70
2019-05-26T01:31:04.912Z,101039.71
2019-05-26T01:32:12.491Z,101036.28
2019-05-26T01:33:20.490Z,101040.13
2019-05-26T01:34:27.406Z,101040.13
2019-05-26T01:35:36.749Z,101028.02
2019-05-26T01:36:43.876Z,101032.73
2019-05-26T01:37:51.514Z,101033.92
2019-05-26T01:38:59.740Z,101035.30
2019-05-26T01:40:08.238Z,101032.66
2019-05-26T01:41:15.563Z,101032.73
2019-05-26T01:42:23.191Z,101032.25
2019-05-26T01:43:30.007Z,101029.36
2019-05-26T01:44:37.927Z,101026.25
2019-05-26T01:45:45.622Z,101021.98
2019-05-26T01:46:54.030Z,101026.22
2019-05-26T01:48:00.943Z,101021.48
2019-05-26T01:49:08.556Z,101032.55
2019-05-26T01:50:15.675Z,101024.08
2019-05-26T01:51:23.671Z,101028.08
2019-05-26T01:52:30.855Z,101033.27
2019-05-26T01:53:38.824Z,101035.09
2019-05-26T01:54:45.657Z,101035.48
2019-05-26T01:55:53.602Z,101035.00
2019-05-26T01:57:01.300Z,101027.72
2019-05-26T01:58:09.284Z,101033.21
2019-05-26T01:59:16.122Z,101034.40
2019-05-26T02:00:24.233Z,101030.07
2019-05-26T02:01:31.063Z,101026.99
2019-05-26T02:02:39.095Z,101029.98
2019-05-26T02:03:46.562Z,101032.58
2019-05-26T02:04:54.856Z,101029.66
2019-05-26T02:06:01.708Z,101028.91
2019-05-26T02:07:09.331Z,101030.16
2019-05-26T02:08:16.281Z,101023.36
2019-05-26T02:09:23.908Z,101021.70
2019-05-26T02:10:31.081Z,101022.53
2019-05-26T02:11:39.105Z,101021.30
2019-05-26T02:12:45.947Z,101018.80
2019-05-26T02:13:53.931Z,101020.02
2019-05-26T02:15:01.315Z,101013.67
2019-05-26T02:16:09.107Z,101014.56
2019-05-26T02:17:15.932Z,101012.84
2019-05-26T02:18:23.898Z,101013.28
2019-05-26T02:19:31.083Z,101012.95
2019-05-26T02:20:38.746Z,101019.40
2019-05-26T02:21:46.253Z,101019.40
2019-05-26T02:22:54.188Z,101016.00
2019-05-26T02:24:01.333Z,101015.97
2019-05-26T02:25:09.738Z,101012.06
2019-05-26T02:26:16.619Z,101013.44
2019-05-26T02:27:24.231Z,101009.14
2019-05-26T02:28:31.082Z,101009.68
2019-05-26T02:29:39.073Z,101004.19
2019-05-26T02:30:46.264Z,101005.89
2019-05-26T02:31:54.028Z,101000.41
2019-05-26T02:33:01.343Z,100996.59
2019-05-26T02:34:09.419Z,101001.72
2019-05-26T02:35:18.528Z,101000.97
2019-05-26T02:36:26.663Z,100995.84
2019-05-26T02:37:33.836Z,100998.41
2019-05-26T02:38:59.881Z,100994.67
2019-05-26T02:39:50.538Z,100996.02
2019-05-26T02:40:58.152Z,100991.81
2019-05-26T02:42:05.098Z,100992.20
2019-05-26T02:43:13.651Z,100985.77
2019-05-26T02:44:20.819Z,100985.82
2019-05-26T02:45:29.994Z,100984.54
2019-05-26T02:46:37.434Z,100981.97
2019-05-26T02:47:46.202Z,100990.95
2019-05-26T02:48:53.313Z,100987.88
2019-05-26T02:50:01.231Z,100986.59
2019-05-26T02:51:08.414Z,100986.27
2019-05-26T02:52:16.043Z,100980.01
2019-05-26T02:53:24.685Z,100978.81
2019-05-26T02:54:32.596Z,100974.08
2019-05-26T02:55:39.410Z,100971.72
2019-05-26T02:56:47.242Z,100972.10
2019-05-26T02:57:54.464Z,100972.10
2019-05-26T02:59:02.462Z,100971.92
2019-05-26T03:00:10.282Z,100969.75
2019-05-26T03:01:18.301Z,100974.41
2019-05-26T03:02:25.613Z,100979.38
2019-05-26T03:03:33.713Z,100980.64
2019-05-26T03:04:42.651Z,100976.34
2019-05-26T03:05:50.479Z,100974.16
2019-05-26T03:06:58.921Z,100976.22
2019-05-26T03:08:07.705Z,100971.58
2019-05-26T03:09:23.261Z,100968.98
2019-05-26T03:10:27.577Z,100965.16
2019-05-26T03:11:37.735Z,100970.11
2019-05-26T03:12:47.451Z,100968.02
2019-05-26T03:13:57.668Z,100966.32
2019-05-26T03:15:06.985Z,100966.05
2019-05-26T03:16:16.686Z,100965.25
2019-05-26T03:17:26.096Z,100962.98
2019-05-26T03:18:35.969Z,100962.00
2019-05-26T03:19:47.091Z,100964.86
2019-05-26T03:20:57.357Z,100966.53
2019-05-26T03:22:06.973Z,100969.80
2019-05-26T03:23:15.329Z,100965.38
2019-05-26T03:24:26.678Z,100969.38
2019-05-26T03:25:37.435Z,100965.56
2019-05-26T03:26:45.395Z,100963.33
2019-05-26T03:27:52.567Z,100962.94
2019-05-26T03:29:00.174Z,100964.19
2019-05-26T03:30:07.809Z,100959.86
2019-05-26T03:31:15.622Z,100965.34
2019-05-26T03:32:23.027Z,100960.63
2019-05-26T03:33:31.244Z,100959.35
2019-05-26T03:34:38.568Z,100955.89
2019-05-26T03:35:46.612Z,100953.20
2019-05-26T03:36:53.539Z,100950.14
2019-05-26T03:38:01.484Z,100953.58
2019-05-26T03:39:08.772Z,100956.14
2019-05-26T03:40:16.984Z,100955.15
2019-05-26T03:41:24.053Z,100954.15
2019-05-26T03:42:31.644Z,100952.55
2019-05-26T03:43:38.465Z,100952.39
2019-05-26T03:44:46.396Z,100950.05
2019-05-26T03:46:20.253Z,100947.38
2019-05-26T03:47:27.822Z,100951.69
2019-05-26T03:48:34.994Z,100951.20
2019-05-26T03:49:42.534Z,100953.70
2019-05-26T03:50:49.688Z,100951.90
2019-05-26T03:51:57.257Z,100949.23
2019-05-26T03:53:04.393Z,100948.37
2019-05-26T03:54:12.323Z,100941.53
2019-05-26T03:55:19.064Z,100942.78
2019-05-26T03:56:27.418Z,100941.53
2019-05-26T03:57:34.893Z,100939.83
2019-05-26T03:58:42.731Z,100944.48
2019-05-26T03:59:49.873Z,100940.46
2019-05-26T04:00:57.418Z,100941.75
2019-05-26T04:02:04.177Z,100943.31
2019-05-26T04:03:12.243Z,100948.20
2019-05-26T04:04:19.392Z,100941.27
2019-05-26T04:05:27.275Z,100942.89
2019-05-26T04:06:34.040Z,100941.50
2019-05-26T04:07:41.542Z,100941.47
2019-05-26T04:08:48.526Z,100937.92
2019-05-26T04:10:04.510Z,100937.74
2019-05-26T04:11:05.357Z,100932.01
2019-05-26T04:12:12.889Z,100934.95
2019-05-26T04:13:19.624Z,100939.16
2019-05-26T04:14:27.409Z,100934.28
2019-05-26T04:15:34.598Z,100935.91
2019-05-26T04:16:42.422Z,100931.86
2019-05-26T04:17:49.168Z,100943.73
2019-05-26T04:18:56.699Z,100936.81
2019-05-26T04:20:03.601Z,100939.69
2019-05-26T04:21:11.133Z,100940.44
2019-05-26T04:22:18.273Z,100941.27
2019-05-26T04:23:26.502Z,100937.91
2019-05-26T04:24:33.242Z,100937.91
2019-05-26T04:25:40.872Z,100946.45
2019-05-26T04:26:48.110Z,100938.66
2019-05-26T04:27:55.638Z,100943.39
2019-05-26T04:29:02.390Z,100936.59
2019-05-26T04:30:10.576Z,100940.28
2019-05-26T04:31:17.526Z,100939.76
2019-05-26T04:32:25.380Z,100934.95
2019-05-26T04:33:32.129Z,100931.85
2019-05-26T04:34:39.733Z,100931.28
2019-05-26T04:35:46.868Z,100935.66
2019-05-26T04:36:54.595Z,100934.75
2019-05-26T04:38:02.070Z,100934.22
2019-05-26T04:39:10.272Z,100937.88
2019-05-26T04:40:26.435Z,100930.91
2019-05-26T04:41:26.885Z,100937.67
2019-05-26T04:42:34.201Z,100937.84
2019-05-26T04:43:42.310Z,100936.02
2019-05-26T04:44:49.066Z,100940.59
2019-05-26T04:45:57.185Z,100930.55
2019-05-26T04:47:03.941Z,100938.97
2019-05-26T04:48:11.493Z,100935.36
2019-05-26T04:49:18.228Z,100930.17
2019-05-26T04:50:25.743Z,100933.37
2019-05-26T04:51:32.511Z,100930.71
2019-05-26T04:52:40.423Z,100923.69
2019-05-26T04:53:47.317Z,100927.30
2019-05-26T04:54:54.851Z,100925.88
2019-05-26T04:56:01.610Z,100929.53
2019-05-26T04:57:09.294Z,100928.28
2019-05-26T04:58:16.031Z,100931.06
2019-05-26T04:59:23.718Z,100929.22
2019-05-26T05:00:30.828Z,100930.52
2019-05-26T05:01:38.476Z,100922.98
2019-05-26T05:02:45.283Z,100920.91
2019-05-26T05:03:52.830Z,100923.67
2019-05-26T05:04:59.634Z,100919.72
2019-05-26T05:06:07.549Z,100921.89
2019-05-26T05:07:14.943Z,100921.05
2019-05-26T05:08:22.468Z,100921.80
2019-05-26T05:09:29.608Z,100917.93
2019-05-26T05:10:42.309Z,100914.76
2019-05-26T05:11:46.089Z,100918.45
2019-05-26T05:12:53.613Z,100916.88
2019-05-26T05:14:00.374Z,100916.47
2019-05-26T05:15:09.351Z,100917.90
2019-05-26T05:16:16.243Z,100916.29
2019-05-26T05:17:24.108Z,100915.05
2019-05-26T05:18:31.357Z,100915.73
2019-05-26T05:19:38.887Z,100914.28
2019-05-26T05:20:45.624Z,100917.56
2019-05-26T05:21:53.388Z,100913.55
2019-05-26T05:23:00.127Z,100912.39
2019-05-26T05:24:07.749Z,100917.45
2019-05-26T05:25:15.538Z,100913.02
2019-05-26T05:26:23.150Z,100913.57
2019-05-26T05:27:29.923Z,100906.01
2019-05-26T05:28:37.997Z,100909.27
2019-05-26T05:29:44.757Z,100907.00
2019-05-26T05:30:52.911Z,100913.67
2019-05-26T05:31:59.974Z,100907.12
2019-05-26T05:33:07.535Z,100909.91
2019-05-26T05:34:14.287Z,100907.17
2019-05-26T05:35:22.323Z,100903.92
2019-05-26T05:36:29.131Z,100901.40
2019-05-26T05:37:36.674Z,100899.55
2019-05-26T05:38:43.483Z,100896.24
2019-05-26T05:39:51.010Z,100898.58
2019-05-26T05:41:00.025Z,100899.50
2019-05-26T05:42:07.567Z,100900.11
2019-05-26T05:43:14.425Z,100896.56
2019-05-26T05:44:22.029Z,100891.48
2019-05-26T05:45:28.796Z,100895.89
2019-05-26T05:46:36.377Z,100893.58
2019-05-26T05:47:43.107Z,100890.95
2019-05-26T05:48:50.622Z,100891.10
2019-05-26T05:49:57.374Z,100892.08
2019-05-26T05:51:05.212Z,100889.60
2019-05-26T05:52:12.167Z,100892.74
2019-05-26T05:53:20.094Z,100896.47
2019-05-26T05:54:27.159Z,100892.44
2019-05-26T05:55:35.046Z,100890.69
2019-05-26T05:56:42.142Z,100882.95
2019-05-26T05:57:50.077Z,100886.19
2019-05-26T05:58:57.427Z,100889.23
2019-05-26T06:00:05.478Z,100887.38
2019-05-26T06:01:12.243Z,100892.96
2019-05-26T06:02:20.115Z,100886.52
2019-05-26T06:03:26.890Z,100892.53
2019-05-26T06:04:36.193Z,100894.86
2019-05-26T06:05:43.381Z,100894.48
2019-05-26T06:06:51.622Z,100895.47
2019-05-26T06:07:58.670Z,100891.72
2019-05-26T06:09:08.427Z,100898.95
2019-05-26T06:10:16.373Z,100898.80
2019-05-26T06:11:23.969Z,100899.72
2019-05-26T06:12:31.271Z,100895.27
2019-05-26T06:13:39.222Z,100899.52
2019-05-26T06:14:46.467Z,100892.48
2019-05-26T06:15:54.443Z,100892.77
2019-05-26T06:17:01.182Z,100895.07
2019-05-26T06:18:08.710Z,100894.50
2019-05-26T06:19:15.446Z,100893.03
2019-05-26T06:20:23.702Z,100892.19
2019-05-26T06:21:30.868Z,100898.70
2019-05-26T06:22:38.439Z,100887.08
2019-05-26T06:23:45.528Z,100880.45
2019-05-26T06:24:53.369Z,100882.97
2019-05-26T06:26:00.707Z,100877.17
2019-05-26T06:27:08.368Z,100885.04
2019-05-26T06:28:15.131Z,100874.26
2019-05-26T06:29:22.721Z,100880.32
2019-05-26T06:30:30.267Z,100879.37
2019-05-26T06:31:37.988Z,100882.26
2019-05-26T06:32:45.130Z,100881.17
2019-05-26T06:33:53.194Z,100881.16
2019-05-26T06:35:00.349Z,100881.86
2019-05-26T06:36:08.088Z,100879.80
2019-05-26T06:37:14.833Z,100877.10
2019-05-26T06:38:22.413Z,100878.58
2019-05-26T06:39:29.557Z,100879.10
2019-05-26T06:40:37.941Z,100883.87
2019-05-26T06:41:45.249Z,100880.02
2019-05-26T06:42:52.891Z,100880.23
2019-05-26T06:43:59.924Z,100872.86
2019-05-26T06:45:09.664Z,100869.33
2019-05-26T06:46:16.840Z,100877.15
2019-05-26T06:47:36.648Z,100879.31
2019-05-26T06:48:43.430Z,100879.31
2019-05-26T06:49:51.277Z,100874.48
2019-05-26T06:50:58.744Z,100876.77
2019-05-26T06:52:06.384Z,100874.52
2019-05-26T06:53:13.171Z,100877.34
2019-05-26T06:54:21.136Z,100879.10
2019-05-26T06:55:27.898Z,100876.08
2019-05-26T06:56:35.437Z,100876.14
2019-05-26T06:57:42.759Z,100876.02
2019-05-26T06:58:50.683Z,100874.88
2019-05-26T06:59:57.738Z,100879.23
2019-05-26T07:01:05.466Z,100870.34
2019-05-26T07:02:12.936Z,100870.23
2019-05-26T07:03:20.521Z,100872.56
2019-05-26T07:04:27.438Z,100872.72
2019-05-26T07:05:34.952Z,100874.87
2019-05-26T07:06:41.702Z,100872.73
2019-05-26T07:07:49.303Z,100871.09
2019-05-26T07:08:56.283Z,100874.41
2019-05-26T07:10:03.811Z,100875.19
2019-05-26T07:11:11.607Z,100881.73
2019-05-26T07:12:19.558Z,100876.10
2019-05-26T07:13:26.564Z,100881.25
2019-05-26T07:14:34.402Z,100881.80
2019-05-26T07:15:41.566Z,100884.17
2019-05-26T07:16:49.098Z,100888.59
2019-05-26T07:17:55.857Z,100877.91
2019-05-26T07:19:03.531Z,100873.16
2019-05-26T07:20:11.900Z,100878.05
2019-05-26T07:21:20.313Z,100879.89
2019-05-26T07:22:27.409Z,100875.86
2019-05-26T07:23:34.948Z,100878.20
2019-05-26T07:24:42.080Z,100881.17
2019-05-26T07:25:49.596Z,100877.79
2019-05-26T07:26:56.653Z,100869.45
2019-05-26T07:28:04.217Z,100875.58
2019-05-26T07:30:43.552Z,100870.55
2019-05-26T07:31:50.444Z,100876.95
2019-05-26T07:32:58.333Z,100872.38
2019-05-26T07:34:05.088Z,100868.42
2019-05-26T07:35:13.190Z,100869.30
2019-05-26T07:36:19.959Z,100868.39
2019-05-26T07:37:27.855Z,100871.73
2019-05-26T07:38:34.611Z,100871.73
2019-05-26T07:39:42.182Z,100868.00
2019-05-26T07:40:48.996Z,100868.42
2019-05-26T07:42:09.339Z,100869.09
2019-05-26T07:43:05.065Z,100870.44
2019-05-26T07:44:12.607Z,100868.00
2019-05-26T07:45:19.976Z,100866.70
2019-05-26T07:46:28.384Z,100866.67
2019-05-26T07:47:35.125Z,100865.22
2019-05-26T07:48:42.959Z,100862.12
2019-05-26T07:49:50.085Z,100862.91
2019-05-26T07:50:57.610Z,100863.74
2019-05-26T07:52:04.573Z,100863.70
2019-05-26T07:53:12.439Z,100864.52
2019-05-26T07:54:25.536Z,100863.14
2019-05-26T07:55:28.460Z,100858.26
2019-05-26T07:56:35.210Z,100863.30
2019-05-26T07:57:43.079Z,100861.39
2019-05-26T07:58:50.142Z,100864.79
2019-05-26T07:59:57.673Z,100863.45
2019-05-26T08:01:04.423Z,100856.31
2019-05-26T08:02:12.224Z,100859.27
2019-05-26T08:03:19.055Z,100861.63
2019-05-26T08:04:26.964Z,100861.81
2019-05-26T08:05:33.752Z,100861.27
2019-05-26T08:06:41.624Z,100861.63
2019-05-26T08:07:48.945Z,100860.03
2019-05-26T08:08:57.236Z,100855.39
2019-05-26T08:10:04.720Z,100854.27
2019-05-26T08:11:13.112Z,100855.87
2019-05-26T08:12:27.045Z,100856.39
2019-05-26T08:13:30.154Z,100852.80
2019-05-26T08:14:37.553Z,100855.95
2019-05-26T08:15:45.901Z,100849.06
2019-05-26T08:16:53.113Z,100854.34
2019-05-26T08:18:01.223Z,100855.64
2019-05-26T08:19:08.189Z,100850.64
2019-05-26T08:20:17.028Z,100854.81
2019-05-26T08:21:24.292Z,100852.92
2019-05-26T08:22:32.377Z,100853.20
2019-05-26T08:23:39.591Z,100851.80
2019-05-26T08:24:47.959Z,100856.27
2019-05-26T08:27:15.060Z,100850.87
2019-05-26T08:28:22.749Z,100850.16
2019-05-26T08:29:30.945Z,100847.86
2019-05-26T08:30:38.440Z,100850.17
2019-05-26T08:31:46.390Z,100846.64
2019-05-26T08:32:54.115Z,100849.03
2019-05-26T08:34:02.269Z,100847.86
2019-05-26T08:35:10.175Z,100847.48
2019-05-26T08:36:18.125Z,100844.52
2019-05-26T08:37:25.716Z,100844.11
2019-05-26T08:38:33.619Z,100846.78
2019-05-26T08:39:41.477Z,100846.99
2019-05-26T08:40:49.411Z,100853.51
2019-05-26T08:41:56.476Z,100845.31
2019-05-26T08:43:05.751Z,100845.22
2019-05-26T08:44:13.107Z,100841.02
2019-05-26T08:45:23.038Z,100844.69
2019-05-26T08:46:30.508Z,100845.95
2019-05-26T08:47:38.141Z,100837.88
2019-05-26T08:48:45.821Z,100840.20
2019-05-26T08:49:54.667Z,100836.04
2019-05-26T08:51:01.706Z,100836.16
2019-05-26T08:52:09.763Z,100839.12
2019-05-26T08:53:16.503Z,100839.92
2019-05-26T08:54:24.328Z,100833.27
2019-05-26T08:55:31.393Z,100837.79
2019-05-26T08:56:39.278Z,100837.30
2019-05-26T08:57:46.452Z,100833.11
2019-05-26T08:58:54.071Z,100836.48
2019-05-26T09:00:01.165Z,100828.38
2019-05-26T09:01:09.199Z,100830.69
2019-05-26T09:02:16.640Z,100832.53
2019-05-26T09:03:25.266Z,100828.67
2019-05-26T09:04:32.756Z,100826.92
2019-05-26T09:05:40.605Z,100834.50
2019-05-26T09:06:47.567Z,100827.92
2019-05-26T09:07:55.584Z,100830.50
2019-05-26T09:09:02.807Z,100830.36
2019-05-26T09:10:10.832Z,100835.38
2019-05-26T09:11:18.158Z,100833.20
2019-05-26T09:12:26.291Z,100829.22
2019-05-26T09:13:33.751Z,100828.13
2019-05-26T09:14:41.544Z,100831.78
2019-05-26T09:15:48.387Z,100825.16
2019-05-26T09:16:56.688Z,100831.11
2019-05-26T09:18:03.837Z,100824.00
2019-05-26T09:19:11.506Z,100827.37
2019-05-26T09:20:19.454Z,100825.89
2019-05-26T09:21:27.151Z,100826.16
2019-05-26T09:22:34.155Z,100828.41
2019-05-26T09:23:42.440Z,100825.44
2019-05-26T09:24:49.735Z,100823.97
2019-05-26T09:25:58.265Z,100825.17
2019-05-26T09:27:06.321Z,100827.95
2019-05-26T09:28:14.271Z,100826.47
2019-05-26T09:29:21.919Z,100821.83
2019-05-26T09:30:29.801Z,100824.38
2019-05-26T09:31:36.788Z,100823.76
2019-05-26T09:32:44.473Z,100819.77
2019-05-26T09:33:52.366Z,100819.09
2019-05-26T09:35:00.641Z,100822.45
2019-05-26T09:36:08.104Z,100820.36
2019-05-26T09:37:15.951Z,100821.25
2019-05-26T09:38:22.968Z,100822.05
2019-05-26T09:39:30.861Z,100830.56
2019-05-26T09:40:37.810Z,100819.70
2019-05-26T09:41:46.212Z,100822.56
2019-05-26T09:42:54.292Z,100821.59
2019-05-26T09:44:02.502Z,100816.50
2019-05-26T09:45:10.847Z,100825.00
2019-05-26T09:46:19.129Z,100812.69
2019-05-26T09:47:26.218Z,100814.27
2019-05-26T09:48:34.124Z,100819.47
2019-05-26T09:49:41.292Z,100814.02
2019-05-26T09:50:49.275Z,100817.02
2019-05-26T09:51:56.479Z,100813.86
2019-05-26T09:53:04.018Z,100814.98
2019-05-26T09:54:12.764Z,100807.36
2019-05-26T09:55:20.921Z,100815.58
2019-05-26T09:56:28.302Z,100813.42
2019-05-26T09:57:35.928Z,100810.85
2019-05-26T09:58:43.182Z,100811.62
2019-05-26T09:59:51.294Z,100809.59
2019-05-26T10:00:58.526Z,100806.29
2019-05-26T10:02:06.884Z,100803.02
2019-05-26T10:03:14.042Z,100796.28
2019-05-26T10:04:22.272Z,100802.34
2019-05-26T10:05:29.427Z,100805.22
2019-05-26T10:06:37.133Z,100803.23
2019-05-26T10:07:44.228Z,100806.58
2019-05-26T10:08:52.003Z,100800.34
2019-05-26T10:09:59.510Z,100797.23
2019-05-26T10:11:07.359Z,100805.09
2019-05-26T10:12:14.701Z,100800.94
2019-05-26T10:13:31.449Z,100796.30
2019-05-26T10:14:31.708Z,100800.82
2019-05-26T10:15:39.310Z,100799.53
2019-05-26T10:16:46.745Z,100795.72
2019-05-26T10:17:54.326Z,100795.47
2019-05-26T10:19:01.109Z,100795.11
2019-05-26T10:20:10.443Z,100796.64
2019-05-26T10:21:17.192Z,100792.97
2019-05-26T10:22:25.124Z,100793.34
2019-05-26T10:23:31.859Z,100793.81
2019-05-26T10:24:39.568Z,100790.58
2019-05-26T10:25:46.329Z,100790.23
2019-05-26T10:26:54.341Z,100792.13
2019-05-26T10:28:01.716Z,100786.66
2019-05-26T10:29:10.238Z,100785.36
2019-05-26T10:30:18.955Z,100789.86
2019-05-26T10:31:27.007Z,100788.21
2019-05-26T10:32:34.411Z,100793.22
2019-05-26T10:33:42.552Z,100787.72
2019-05-26T10:34:50.586Z,100789.52
2019-05-26T10:35:58.294Z,100787.98
2019-05-26T10:37:05.317Z,100790.11
2019-05-26T10:38:13.223Z,100785.94
2019-05-26T10:39:20.317Z,100787.48
2019-05-26T10:40:28.310Z,100792.63
2019-05-26T10:41:35.048Z,100793.42
2019-05-26T10:42:43.203Z,100787.50
2019-05-26T10:43:49.985Z,100789.17
2019-05-26T10:44:57.584Z,100786.66
2019-05-26T10:46:04.328Z,100793.66
2019-05-26T10:47:12.328Z,100787.89
2019-05-26T10:48:19.553Z,100790.75
2019-05-26T10:49:27.493Z,100795.89
2019-05-26T10:50:34.700Z,100779.89
2019-05-26T10:51:42.873Z,100788.90
2019-05-26T10:52:50.174Z,100783.32
2019-05-26T10:53:58.578Z,100783.41
2019-05-26T10:55:06.464Z,100783.31
2019-05-26T10:56:15.351Z,100789.03
2019-05-26T10:57:22.415Z,100784.28
2019-05-26T10:58:31.068Z,100788.20
2019-05-26T10:59:38.094Z,100780.03
2019-05-26T11:00:46.142Z,100784.33
2019-05-26T11:01:54.355Z,100783.14
2019-05-26T11:03:05.848Z,100782.02
2019-05-26T11:04:17.431Z,100787.09
2019-05-26T11:05:25.331Z,100791.52
2019-05-26T11:06:33.135Z,100782.27
2019-05-26T11:07:41.036Z,100785.94
2019-05-26T11:08:47.964Z,100787.87
2019-05-26T11:09:55.889Z,100782.95
2019-05-26T11:11:03.086Z,100779.98
2019-05-26T11:12:11.187Z,100781.16
2019-05-26T11:13:18.457Z,100778.31
2019-05-26T11:14:26.633Z,100772.00
2019-05-26T11:15:34.049Z,100774.38
2019-05-26T11:16:42.647Z,100772.63
2019-05-26T11:17:50.646Z,100770.45
2019-05-26T11:18:58.746Z,100778.20
2019-05-26T11:20:07.466Z,100764.15
2019-05-26T11:21:15.622Z,100769.49
2019-05-26T11:22:23.049Z,100769.98
2019-05-26T11:23:30.935Z,100771.84
2019-05-26T11:24:41.543Z,100771.00
2019-05-26T11:25:49.431Z,100770.50
2019-05-26T11:27:07.193Z,100771.88
2019-05-26T11:28:06.291Z,100766.01
2019-05-26T11:29:14.380Z,100764.14
2019-05-26T11:30:22.873Z,100766.03
2019-05-26T11:31:29.786Z,100771.44
2019-05-26T11:32:37.503Z,100766.22
2019-05-26T11:33:44.261Z,100766.50
2019-05-26T11:35:01.036Z,100764.48
2019-05-26T11:36:00.756Z,100767.44
2019-05-26T11:37:09.221Z,100763.20
2019-05-26T11:38:16.205Z,100761.02
2019-05-26T11:39:25.177Z,100758.38
2019-05-26T11:40:32.149Z,100767.89
2019-05-26T11:41:40.099Z,100766.73
2019-05-26T11:42:46.918Z,100760.22
2019-05-26T11:43:54.432Z,100757.86
2019-05-26T11:45:01.952Z,100750.70
2019-05-26T11:46:10.203Z,100758.56
2019-05-26T11:47:17.387Z,100757.69
2019-05-26T11:48:24.948Z,100754.73
2019-05-26T11:49:31.742Z,100756.98
2019-05-26T11:50:39.264Z,100752.89
2019-05-26T11:51:46.885Z,100751.48
2019-05-26T11:52:54.440Z,100750.16
2019-05-26T11:54:01.506Z,100746.01
2019-05-26T11:55:09.643Z,100747.06
2019-05-26T11:56:16.393Z,100739.67
2019-05-26T11:57:23.999Z,100736.45
2019-05-26T11:58:30.773Z,100739.99
2019-05-26T11:59:38.328Z,100730.80
2019-05-26T12:00:45.076Z,100728.84
2019-05-26T12:01:52.701Z,100727.11
2019-05-26T12:03:00.539Z,100722.19
2019-05-26T12:04:08.695Z,100725.33
2019-05-26T12:05:17.902Z,100720.75
2019-05-26T12:06:25.669Z,100726.23
2019-05-26T12:07:32.427Z,100723.78
2019-05-26T12:08:40.362Z,100725.17
2019-05-26T12:09:47.904Z,100725.35
2019-05-26T12:10:58.279Z,100727.48
2019-05-26T12:12:04.308Z,100729.30
2019-05-26T12:13:12.205Z,100724.33
2019-05-26T12:14:33.745Z,100725.61
2019-05-26T12:15:29.135Z,100726.23
2019-05-26T12:16:35.996Z,100726.42
2019-05-26T12:17:43.546Z,100718.41
2019-05-26T12:18:50.872Z,100722.13
2019-05-26T12:19:58.428Z,100724.52
2019-05-26T12:21:05.324Z,100721.13
2019-05-26T12:22:12.929Z,100727.22
2019-05-26T12:23:20.082Z,100713.42
2019-05-26T12:24:29.497Z,100714.64
2019-05-26T12:25:36.762Z,100716.45
2019-05-26T12:26:44.331Z,100713.25
2019-05-26T12:27:51.493Z,100708.09
2019-05-26T12:28:59.170Z,100713.95
2019-05-26T12:30:07.411Z,100701.58
2019-05-26T12:31:15.292Z,100703.30
2019-05-26T12:32:22.108Z,100700.72
2019-05-26T12:33:29.676Z,100696.52
2019-05-26T12:34:37.682Z,100696.98
2019-05-26T12:35:46.805Z,100691.53
2019-05-26T12:36:54.054Z,100696.33
2019-05-26T12:38:01.954Z,100690.98
2019-05-26T12:39:10.235Z,100685.09
2019-05-26T12:40:18.181Z,100683.95
2019-05-26T12:41:25.330Z,100683.05
2019-05-26T12:42:32.986Z,100681.83
2019-05-26T12:43:39.750Z,100686.74
2019-05-26T12:44:49.988Z,100681.41
2019-05-26T12:45:56.327Z,100679.94
2019-05-26T12:47:04.839Z,100680.67
2019-05-26T12:48:11.700Z,100681.78
2019-05-26T12:49:19.819Z,100686.06
2019-05-26T12:50:26.683Z,100684.26
2019-05-26T12:51:34.607Z,100687.28
2019-05-26T12:52:41.621Z,100684.52
2019-05-26T12:53:49.527Z,100682.51
2019-05-26T12:54:56.290Z,100685.03
2019-05-26T12:56:04.248Z,100687.72